Accueil
METAR-TAF:

METAR-TAF

Aéroports :

Aéroport de Bournemouth

Bornemouth, Angleterre

latitude: 50-47N, longitude: 001-50W, altitude: 11 m

Observation

Le bulletin a été fait il y a 5 heures et 58 minutes, à 20:20 UTC
Vent 3 kt de ouest
Température 16°C
Humidité 82%
Pression 1013 hPa
Visibilité 10 km ou plus
Quelques nuages à une hauteur de 2200 ft

METAR: EGHH 012020Z 26003KT 9999 FEW022 16/13 Q1013

Heure: 03:18 (02:18 UTC)

Prévision

Le bulletin a été fait il y a 9 heures et 23 minutes, à 16:55 UTC
Prévision valable du 01 à 18 UTC au 01 à 21 UTC
Vent 4 kt de direction variable
Visibilité 10 km ou plus
Nuages épars à une hauteur de 2200 ft
Probabilité 30% :
Temporairement
du 01 à 18 UTC au 01 à 19 UTC
Visibilité: 7000 m
averses de pluie

TAF: EGHH 011655Z 0118/0121 VRB04KT 9999 SCT022 PROB30 TEMPO 0118/0119 7000 SHRA

Observations et prévisions météorologiques de plus de 4000 aéroports (messages METAR et TAF).

Les stations disponibles sont représentées par des disques jaunes et rouges sur la carte.

Passer la souris dessus pour voir le nom de la station.

Cliquer dessus pour voir les observations et prévisions météorologiques.

Pour changer de carte: cliquez sur les boutons verts avec une croix noire pour zoomer, sur le bouton vert avec un tiret pour effectuer un zoom arrière, ou sur les flèches vertes pour les cartes adjacentes.


METAR-TAF: